Terminal Aerodrome Forecast
Issued by NWS

Home | Current Version | Previous Version | Text Only | Print | Product List | Glossary On
Versions: 1 2 3 4 5 6 7 8 9 10 11 12 13 14 15 16 17 18 19 20
672
FTUS43 KBIS 231122
TAFMOT
TAF
KMOT 231122Z 2312/2412 14010G18KT 5SM -TSRA BKN070CB OVC100
      TEMPO 2312/2314 2SM TSRA OVC018CB
     FM231400 17009KT P6SM VCTS BKN060CB
     FM231800 26018G28KT P6SM FEW050
     FM240300 29015KT P6SM SKC=

USA.gov is the U.S. government's official web portal to all federal, state and local government web resources and services.